Terminal Aerodrome Forecast
Issued by NWS Charleston, WV

Home | Current Version | Previous Version | Text Only | Print | Product List | Glossary On
Versions: 1 2 3 4 5 6 7 8 9 10 11 12 13 14 15 16 17 18 19 20
000
FTUS41 KRLX 252300 RRA
TAFPKB
TAF
KPKB 252344Z 2600/2624 31005KT P6SM FEW200
     FM261000 VRB03KT P6SM BKN050
     FM261500 VRB04KT 6SM -SHRASN BKN025=

USA.gov is the U.S. government's official web portal to all federal, state and local government web resources and services.